sensor_id;sensor_type;location;lat;lon;timestamp;P1;durP1;ratioP1;P2;durP2;ratioP2
39994;SDS011;25686;51.908;10.418;2023-12-20T00:00:54;0.60;;;0.60;;
39994;SDS011;25686;51.908;10.418;2023-12-20T00:02:55;0.60;;;0.60;;
39994;SDS011;25686;51.908;10.418;2023-12-20T00:04:56;0.50;;;0.50;;
39994;SDS011;25686;51.908;10.418;2023-12-20T00:06:57;0.57;;;0.57;;
39994;SDS011;25686;51.908;10.418;2023-12-20T00:08:58;1.65;;;0.70;;
39994;SDS011;25686;51.908;10.418;2023-12-20T00:10:59;0.60;;;0.60;;
39994;SDS011;25686;51.908;10.418;2023-12-20T00:13:00;0.75;;;0.75;;
39994;SDS011;25686;51.908;10.418;2023-12-20T00:15:01;0.70;;;0.70;;
39994;SDS011;25686;51.908;10.418;2023-12-20T00:17:02;0.85;;;0.85;;
39994;SDS011;25686;51.908;10.418;2023-12-20T00:19:03;0.90;;;0.90;;
39994;SDS011;25686;51.908;10.418;2023-12-20T00:21:04;1.02;;;0.93;;
39994;SDS011;25686;51.908;10.418;2023-12-20T00:23:05;1.10;;;1.00;;
39994;SDS011;25686;51.908;10.418;2023-12-20T00:25:06;2.67;;;1.02;;
39994;SDS011;25686;51.908;10.418;2023-12-20T00:27:07;0.90;;;0.80;;
39994;SDS011;25686;51.908;10.418;2023-12-20T00:29:08;0.80;;;0.80;;
39994;SDS011;25686;51.908;10.418;2023-12-20T00:31:09;0.73;;;0.73;;
39994;SDS011;25686;51.908;10.418;2023-12-20T00:33:10;1.05;;;0.90;;
39994;SDS011;25686;51.908;10.418;2023-12-20T00:35:12;0.63;;;0.63;;
39994;SDS011;25686;51.908;10.418;2023-12-20T00:37:13;0.70;;;0.70;;
39994;SDS011;25686;51.908;10.418;2023-12-20T00:39:14;0.57;;;0.52;;
39994;SDS011;25686;51.908;10.418;2023-12-20T00:41:15;0.70;;;0.70;;
39994;SDS011;25686;51.908;10.418;2023-12-20T00:43:16;0.60;;;0.60;;
39994;SDS011;25686;51.908;10.418;2023-12-20T00:45:17;0.50;;;0.50;;
39994;SDS011;25686;51.908;10.418;2023-12-20T00:47:18;0.40;;;0.40;;
39994;SDS011;25686;51.908;10.418;2023-12-20T00:49:19;0.30;;;0.30;;
39994;SDS011;25686;51.908;10.418;2023-12-20T00:51:20;0.95;;;0.57;;
39994;SDS011;25686;51.908;10.418;2023-12-20T00:53:22;0.30;;;0.30;;
39994;SDS011;25686;51.908;10.418;2023-12-20T00:55:23;0.30;;;0.30;;
39994;SDS011;25686;51.908;10.418;2023-12-20T00:57:24;0.25;;;0.25;;
39994;SDS011;25686;51.908;10.418;2023-12-20T00:59:25;0.20;;;0.20;;
39994;SDS011;25686;51.908;10.418;2023-12-20T01:01:26;0.30;;;0.30;;
39994;SDS011;25686;51.908;10.418;2023-12-20T01:03:27;0.30;;;0.30;;
39994;SDS011;25686;51.908;10.418;2023-12-20T01:05:28;0.30;;;0.30;;
39994;SDS011;25686;51.908;10.418;2023-12-20T01:07:29;0.20;;;0.20;;
39994;SDS011;25686;51.908;10.418;2023-12-20T01:09:30;0.47;;;0.30;;
39994;SDS011;25686;51.908;10.418;2023-12-20T01:11:31;0.40;;;0.40;;
39994;SDS011;25686;51.908;10.418;2023-12-20T01:13:32;0.30;;;0.30;;
39994;SDS011;25686;51.908;10.418;2023-12-20T01:15:33;0.57;;;0.30;;
39994;SDS011;25686;51.908;10.418;2023-12-20T01:17:34;0.20;;;0.20;;
39994;SDS011;25686;51.908;10.418;2023-12-20T01:19:35;0.30;;;0.30;;
39994;SDS011;25686;51.908;10.418;2023-12-20T01:21:35;0.30;;;0.30;;
39994;SDS011;25686;51.908;10.418;2023-12-20T01:23:36;0.47;;;0.47;;
39994;SDS011;25686;51.908;10.418;2023-12-20T01:25:37;0.40;;;0.40;;
39994;SDS011;25686;51.908;10.418;2023-12-20T01:27:38;0.70;;;0.70;;
39994;SDS011;25686;51.908;10.418;2023-12-20T01:29:39;0.73;;;0.73;;
39994;SDS011;25686;51.908;10.418;2023-12-20T01:31:40;1.05;;;0.98;;
39994;SDS011;25686;51.908;10.418;2023-12-20T01:33:41;1.30;;;0.90;;
39994;SDS011;25686;51.908;10.418;2023-12-20T01:35:42;1.30;;;1.20;;
39994;SDS011;25686;51.908;10.418;2023-12-20T01:37:43;1.50;;;1.40;;
39994;SDS011;25686;51.908;10.418;2023-12-20T01:39:44;2.38;;;1.38;;
39994;SDS011;25686;51.908;10.418;2023-12-20T01:41:45;1.38;;;1.27;;
39994;SDS011;25686;51.908;10.418;2023-12-20T01:43:46;3.25;;;1.58;;
39994;SDS011;25686;51.908;10.418;2023-12-20T01:45:47;1.95;;;1.45;;
39994;SDS011;25686;51.908;10.418;2023-12-20T01:47:48;1.63;;;1.52;;
39994;SDS011;25686;51.908;10.418;2023-12-20T01:49:49;1.55;;;1.45;;
39994;SDS011;25686;51.908;10.418;2023-12-20T01:51:51;1.90;;;1.70;;
39994;SDS011;25686;51.908;10.418;2023-12-20T01:53:52;2.40;;;2.03;;
39994;SDS011;25686;51.908;10.418;2023-12-20T01:55:54;2.83;;;2.53;;
39994;SDS011;25686;51.908;10.418;2023-12-20T01:57:55;2.42;;;2.22;;
39994;SDS011;25686;51.908;10.418;2023-12-20T01:59:57;3.92;;;2.88;;
39994;SDS011;25686;51.908;10.418;2023-12-20T02:01:58;5.03;;;3.40;;
39994;SDS011;25686;51.908;10.418;2023-12-20T02:04:00;4.20;;;3.47;;
39994;SDS011;25686;51.908;10.418;2023-12-20T02:06:01;5.43;;;4.28;;
39994;SDS011;25686;51.908;10.418;2023-12-20T02:08:02;5.03;;;4.30;;
39994;SDS011;25686;51.908;10.418;2023-12-20T02:10:04;5.45;;;4.43;;
39994;SDS011;25686;51.908;10.418;2023-12-20T02:12:05;6.60;;;4.47;;
39994;SDS011;25686;51.908;10.418;2023-12-20T02:14:06;6.10;;;4.60;;
39994;SDS011;25686;51.908;10.418;2023-12-20T02:16:07;5.82;;;4.68;;
39994;SDS011;25686;51.908;10.418;2023-12-20T02:18:08;6.03;;;4.78;;
39994;SDS011;25686;51.908;10.418;2023-12-20T02:20:09;5.78;;;4.60;;
39994;SDS011;25686;51.908;10.418;2023-12-20T02:22:10;5.05;;;4.55;;
39994;SDS011;25686;51.908;10.418;2023-12-20T02:24:11;6.75;;;4.68;;
39994;SDS011;25686;51.908;10.418;2023-12-20T02:26:12;6.55;;;4.90;;
39994;SDS011;25686;51.908;10.418;2023-12-20T02:28:14;7.47;;;4.60;;
39994;SDS011;25686;51.908;10.418;2023-12-20T02:30:15;6.00;;;4.70;;
39994;SDS011;25686;51.908;10.418;2023-12-20T02:32:18;6.68;;;4.70;;
39994;SDS011;25686;51.908;10.418;2023-12-20T02:34:19;7.47;;;4.78;;
39994;SDS011;25686;51.908;10.418;2023-12-20T02:36:20;8.45;;;4.18;;
39994;SDS011;25686;51.908;10.418;2023-12-20T02:38:21;5.53;;;3.58;;
39994;SDS011;25686;51.908;10.418;2023-12-20T02:40:22;6.85;;;3.58;;
39994;SDS011;25686;51.908;10.418;2023-12-20T02:42:23;6.07;;;3.50;;
39994;SDS011;25686;51.908;10.418;2023-12-20T02:44:24;5.85;;;3.42;;
39994;SDS011;25686;51.908;10.418;2023-12-20T02:46:25;6.15;;;3.20;;
39994;SDS011;25686;51.908;10.418;2023-12-20T02:48:26;7.88;;;3.45;;
39994;SDS011;25686;51.908;10.418;2023-12-20T02:50:27;4.38;;;2.80;;
39994;SDS011;25686;51.908;10.418;2023-12-20T02:52:28;7.40;;;2.95;;
39994;SDS011;25686;51.908;10.418;2023-12-20T02:54:30;6.30;;;2.67;;
39994;SDS011;25686;51.908;10.418;2023-12-20T02:56:31;7.35;;;2.75;;
39994;SDS011;25686;51.908;10.418;2023-12-20T02:58:32;7.38;;;3.13;;
39994;SDS011;25686;51.908;10.418;2023-12-20T03:00:33;4.93;;;2.17;;
39994;SDS011;25686;51.908;10.418;2023-12-20T03:02:35;4.50;;;2.20;;
39994;SDS011;25686;51.908;10.418;2023-12-20T03:04:36;12.68;;;2.47;;
39994;SDS011;25686;51.908;10.418;2023-12-20T03:06:37;8.80;;;2.70;;
39994;SDS011;25686;51.908;10.418;2023-12-20T03:08:38;5.00;;;2.13;;
39994;SDS011;25686;51.908;10.418;2023-12-20T03:10:41;6.28;;;1.85;;
39994;SDS011;25686;51.908;10.418;2023-12-20T03:12:41;8.98;;;2.15;;
39994;SDS011;25686;51.908;10.418;2023-12-20T03:14:43;2.72;;;1.58;;
39994;SDS011;25686;51.908;10.418;2023-12-20T03:16:49;8.73;;;1.77;;
39994;SDS011;25686;51.908;10.418;2023-12-20T03:18:50;6.00;;;1.80;;
39994;SDS011;25686;51.908;10.418;2023-12-20T03:20:51;5.95;;;1.70;;
39994;SDS011;25686;51.908;10.418;2023-12-20T03:22:53;8.63;;;1.88;;
39994;SDS011;25686;51.908;10.418;2023-12-20T03:24:53;7.50;;;1.80;;
39994;SDS011;25686;51.908;10.418;2023-12-20T03:26:54;6.93;;;1.80;;
39994;SDS011;25686;51.908;10.418;2023-12-20T03:28:55;7.22;;;1.73;;
39994;SDS011;25686;51.908;10.418;2023-12-20T03:30:56;5.20;;;1.58;;
39994;SDS011;25686;51.908;10.418;2023-12-20T03:32:57;8.50;;;2.13;;
39994;SDS011;25686;51.908;10.418;2023-12-20T03:34:58;6.38;;;1.90;;
39994;SDS011;25686;51.908;10.418;2023-12-20T03:36:59;6.47;;;1.80;;
39994;SDS011;25686;51.908;10.418;2023-12-20T03:39:00;5.57;;;1.50;;
39994;SDS011;25686;51.908;10.418;2023-12-20T03:41:01;10.98;;;1.83;;
39994;SDS011;25686;51.908;10.418;2023-12-20T03:43:02;5.97;;;2.10;;
39994;SDS011;25686;51.908;10.418;2023-12-20T03:45:03;7.78;;;2.15;;
39994;SDS011;25686;51.908;10.418;2023-12-20T03:47:04;6.50;;;1.95;;
39994;SDS011;25686;51.908;10.418;2023-12-20T03:49:05;7.15;;;2.03;;
39994;SDS011;25686;51.908;10.418;2023-12-20T03:51:06;5.32;;;2.00;;
39994;SDS011;25686;51.908;10.418;2023-12-20T03:53:07;8.07;;;2.15;;
39994;SDS011;25686;51.908;10.418;2023-12-20T03:55:08;7.10;;;2.10;;
39994;SDS011;25686;51.908;10.418;2023-12-20T03:57:09;10.27;;;2.22;;
39994;SDS011;25686;51.908;10.418;2023-12-20T03:59:10;8.00;;;2.22;;
39994;SDS011;25686;51.908;10.418;2023-12-20T04:01:11;6.00;;;2.03;;
39994;SDS011;25686;51.908;10.418;2023-12-20T04:03:12;8.65;;;2.28;;
39994;SDS011;25686;51.908;10.418;2023-12-20T04:05:14;12.75;;;2.20;;
39994;SDS011;25686;51.908;10.418;2023-12-20T04:07:16;6.55;;;2.00;;
39994;SDS011;25686;51.908;10.418;2023-12-20T04:09:17;6.60;;;1.85;;
39994;SDS011;25686;51.908;10.418;2023-12-20T04:11:18;7.28;;;2.10;;
39994;SDS011;25686;51.908;10.418;2023-12-20T04:13:19;8.23;;;1.80;;
39994;SDS011;25686;51.908;10.418;2023-12-20T04:15:19;10.20;;;2.05;;
39994;SDS011;25686;51.908;10.418;2023-12-20T04:17:20;5.78;;;1.63;;
39994;SDS011;25686;51.908;10.418;2023-12-20T04:19:24;3.60;;;1.50;;
39994;SDS011;25686;51.908;10.418;2023-12-20T04:21:25;7.32;;;1.85;;
39994;SDS011;25686;51.908;10.418;2023-12-20T04:23:26;7.43;;;1.70;;
39994;SDS011;25686;51.908;10.418;2023-12-20T04:25:27;5.30;;;1.55;;
39994;SDS011;25686;51.908;10.418;2023-12-20T04:27:28;5.47;;;1.50;;
39994;SDS011;25686;51.908;10.418;2023-12-20T04:29:29;6.25;;;1.30;;
39994;SDS011;25686;51.908;10.418;2023-12-20T04:31:30;10.15;;;1.85;;
39994;SDS011;25686;51.908;10.418;2023-12-20T04:33:31;6.68;;;2.10;;
39994;SDS011;25686;51.908;10.418;2023-12-20T04:35:32;8.27;;;1.60;;
39994;SDS011;25686;51.908;10.418;2023-12-20T04:37:33;8.57;;;1.85;;
39994;SDS011;25686;51.908;10.418;2023-12-20T04:39:34;11.05;;;1.75;;
39994;SDS011;25686;51.908;10.418;2023-12-20T04:41:35;7.07;;;1.70;;
39994;SDS011;25686;51.908;10.418;2023-12-20T04:43:36;5.63;;;1.63;;
39994;SDS011;25686;51.908;10.418;2023-12-20T04:45:37;4.70;;;1.73;;
39994;SDS011;25686;51.908;10.418;2023-12-20T04:47:38;8.57;;;1.88;;
39994;SDS011;25686;51.908;10.418;2023-12-20T04:49:39;3.67;;;1.70;;
39994;SDS011;25686;51.908;10.418;2023-12-20T04:51:40;5.75;;;1.75;;
39994;SDS011;25686;51.908;10.418;2023-12-20T04:53:41;7.20;;;1.77;;
39994;SDS011;25686;51.908;10.418;2023-12-20T04:55:42;9.00;;;1.65;;
39994;SDS011;25686;51.908;10.418;2023-12-20T04:57:43;5.07;;;1.50;;
39994;SDS011;25686;51.908;10.418;2023-12-20T04:59:44;10.48;;;2.15;;
39994;SDS011;25686;51.908;10.418;2023-12-20T05:01:45;9.87;;;1.80;;
39994;SDS011;25686;51.908;10.418;2023-12-20T05:03:46;9.02;;;1.85;;
39994;SDS011;25686;51.908;10.418;2023-12-20T05:05:47;9.30;;;2.00;;
39994;SDS011;25686;51.908;10.418;2023-12-20T05:07:48;6.95;;;1.70;;
39994;SDS011;25686;51.908;10.418;2023-12-20T05:09:49;9.23;;;1.90;;
39994;SDS011;25686;51.908;10.418;2023-12-20T05:11:50;6.53;;;1.80;;
39994;SDS011;25686;51.908;10.418;2023-12-20T05:13:51;13.43;;;1.60;;
39994;SDS011;25686;51.908;10.418;2023-12-20T05:15:52;6.13;;;1.63;;
39994;SDS011;25686;51.908;10.418;2023-12-20T05:17:53;7.10;;;1.67;;
39994;SDS011;25686;51.908;10.418;2023-12-20T05:19:54;8.90;;;1.80;;
39994;SDS011;25686;51.908;10.418;2023-12-20T05:21:55;11.10;;;2.00;;
39994;SDS011;25686;51.908;10.418;2023-12-20T05:23:56;9.13;;;1.90;;
39994;SDS011;25686;51.908;10.418;2023-12-20T05:25:57;7.45;;;1.92;;
39994;SDS011;25686;51.908;10.418;2023-12-20T05:27:59;8.07;;;2.00;;
39994;SDS011;25686;51.908;10.418;2023-12-20T05:29:59;7.93;;;1.70;;
39994;SDS011;25686;51.908;10.418;2023-12-20T05:32:00;4.78;;;1.42;;
39994;SDS011;25686;51.908;10.418;2023-12-20T05:34:01;9.88;;;1.73;;
39994;SDS011;25686;51.908;10.418;2023-12-20T05:36:02;6.78;;;2.13;;
39994;SDS011;25686;51.908;10.418;2023-12-20T05:38:04;8.50;;;1.95;;
39994;SDS011;25686;51.908;10.418;2023-12-20T05:40:05;8.15;;;2.08;;
39994;SDS011;25686;51.908;10.418;2023-12-20T05:42:06;8.93;;;2.15;;
39994;SDS011;25686;51.908;10.418;2023-12-20T05:44:07;10.70;;;2.20;;
39994;SDS011;25686;51.908;10.418;2023-12-20T05:46:09;11.00;;;2.10;;
39994;SDS011;25686;51.908;10.418;2023-12-20T05:48:12;7.63;;;2.00;;
39994;SDS011;25686;51.908;10.418;2023-12-20T05:50:13;7.65;;;2.03;;
39994;SDS011;25686;51.908;10.418;2023-12-20T05:52:14;7.60;;;1.90;;
39994;SDS011;25686;51.908;10.418;2023-12-20T05:54:16;6.93;;;2.00;;
39994;SDS011;25686;51.908;10.418;2023-12-20T05:56:17;9.40;;;2.13;;
39994;SDS011;25686;51.908;10.418;2023-12-20T05:58:18;7.13;;;2.03;;
39994;SDS011;25686;51.908;10.418;2023-12-20T06:00:19;6.33;;;1.83;;
39994;SDS011;25686;51.908;10.418;2023-12-20T06:02:20;8.50;;;2.10;;
39994;SDS011;25686;51.908;10.418;2023-12-20T06:04:21;7.97;;;2.57;;
39994;SDS011;25686;51.908;10.418;2023-12-20T06:06:22;9.67;;;2.40;;
39994;SDS011;25686;51.908;10.418;2023-12-20T06:08:23;6.07;;;2.07;;
39994;SDS011;25686;51.908;10.418;2023-12-20T06:10:24;13.82;;;2.47;;
39994;SDS011;25686;51.908;10.418;2023-12-20T06:12:25;12.43;;;2.70;;
39994;SDS011;25686;51.908;10.418;2023-12-20T06:14:32;10.73;;;2.63;;
39994;SDS011;25686;51.908;10.418;2023-12-20T06:16:33;12.23;;;2.60;;
39994;SDS011;25686;51.908;10.418;2023-12-20T06:18:34;10.17;;;2.50;;
39994;SDS011;25686;51.908;10.418;2023-12-20T06:20:36;10.45;;;2.90;;
39994;SDS011;25686;51.908;10.418;2023-12-20T06:22:37;10.40;;;2.40;;
39994;SDS011;25686;51.908;10.418;2023-12-20T06:24:38;15.70;;;2.83;;
39994;SDS011;25686;51.908;10.418;2023-12-20T06:26:39;16.27;;;2.85;;
39994;SDS011;25686;51.908;10.418;2023-12-20T06:28:40;13.60;;;3.03;;
39994;SDS011;25686;51.908;10.418;2023-12-20T06:30:41;11.40;;;2.65;;
39994;SDS011;25686;51.908;10.418;2023-12-20T06:32:42;12.53;;;3.17;;
39994;SDS011;25686;51.908;10.418;2023-12-20T06:34:43;8.77;;;2.83;;
39994;SDS011;25686;51.908;10.418;2023-12-20T06:36:44;10.32;;;3.10;;
39994;SDS011;25686;51.908;10.418;2023-12-20T06:38:45;14.82;;;3.20;;
39994;SDS011;25686;51.908;10.418;2023-12-20T06:40:46;12.63;;;2.83;;
39994;SDS011;25686;51.908;10.418;2023-12-20T06:42:47;9.23;;;2.92;;
39994;SDS011;25686;51.908;10.418;2023-12-20T06:44:48;12.60;;;3.13;;
39994;SDS011;25686;51.908;10.418;2023-12-20T06:46:49;9.00;;;2.90;;
39994;SDS011;25686;51.908;10.418;2023-12-20T06:48:50;15.23;;;3.65;;
39994;SDS011;25686;51.908;10.418;2023-12-20T06:50:51;12.27;;;3.40;;
39994;SDS011;25686;51.908;10.418;2023-12-20T06:52:52;13.68;;;3.35;;
39994;SDS011;25686;51.908;10.418;2023-12-20T06:54:53;13.63;;;3.40;;
39994;SDS011;25686;51.908;10.418;2023-12-20T06:56:54;11.55;;;3.42;;
39994;SDS011;25686;51.908;10.418;2023-12-20T06:58:55;10.82;;;3.30;;
39994;SDS011;25686;51.908;10.418;2023-12-20T07:00:56;14.47;;;3.50;;
39994;SDS011;25686;51.908;10.418;2023-12-20T07:02:57;16.17;;;3.47;;
39994;SDS011;25686;51.908;10.418;2023-12-20T07:04:58;14.80;;;3.20;;
39994;SDS011;25686;51.908;10.418;2023-12-20T07:06:59;18.10;;;3.63;;
39994;SDS011;25686;51.908;10.418;2023-12-20T07:09:00;13.37;;;3.43;;
39994;SDS011;25686;51.908;10.418;2023-12-20T07:11:01;19.73;;;3.83;;
39994;SDS011;25686;51.908;10.418;2023-12-20T07:13:02;15.70;;;3.10;;
39994;SDS011;25686;51.908;10.418;2023-12-20T07:15:03;19.95;;;3.53;;
39994;SDS011;25686;51.908;10.418;2023-12-20T07:17:06;14.00;;;3.87;;
39994;SDS011;25686;51.908;10.418;2023-12-20T07:19:11;11.00;;;2.97;;
39994;SDS011;25686;51.908;10.418;2023-12-20T07:21:12;8.20;;;2.60;;
39994;SDS011;25686;51.908;10.418;2023-12-20T07:23:13;9.80;;;3.47;;
39994;SDS011;25686;51.908;10.418;2023-12-20T07:25:14;15.07;;;3.17;;
39994;SDS011;25686;51.908;10.418;2023-12-20T07:27:15;12.40;;;3.13;;
39994;SDS011;25686;51.908;10.418;2023-12-20T07:29:16;9.57;;;2.70;;
39994;SDS011;25686;51.908;10.418;2023-12-20T07:31:17;11.55;;;3.05;;
39994;SDS011;25686;51.908;10.418;2023-12-20T07:33:18;14.65;;;3.20;;
39994;SDS011;25686;51.908;10.418;2023-12-20T07:35:19;12.90;;;3.20;;
39994;SDS011;25686;51.908;10.418;2023-12-20T07:37:20;10.15;;;2.97;;
39994;SDS011;25686;51.908;10.418;2023-12-20T07:39:21;8.13;;;2.77;;
39994;SDS011;25686;51.908;10.418;2023-12-20T07:41:22;14.68;;;3.22;;
39994;SDS011;25686;51.908;10.418;2023-12-20T07:43:23;10.07;;;2.55;;
39994;SDS011;25686;51.908;10.418;2023-12-20T07:45:24;9.37;;;3.10;;
39994;SDS011;25686;51.908;10.418;2023-12-20T07:47:25;9.47;;;2.83;;
39994;SDS011;25686;51.908;10.418;2023-12-20T07:49:26;10.40;;;2.80;;
39994;SDS011;25686;51.908;10.418;2023-12-20T07:51:28;14.20;;;2.80;;
39994;SDS011;25686;51.908;10.418;2023-12-20T07:53:29;16.53;;;3.23;;
39994;SDS011;25686;51.908;10.418;2023-12-20T07:55:30;12.18;;;3.35;;
39994;SDS011;25686;51.908;10.418;2023-12-20T07:57:31;17.23;;;3.37;;
39994;SDS011;25686;51.908;10.418;2023-12-20T07:59:32;9.93;;;3.37;;
39994;SDS011;25686;51.908;10.418;2023-12-20T08:01:33;15.87;;;3.30;;
39994;SDS011;25686;51.908;10.418;2023-12-20T08:03:34;14.53;;;3.33;;
39994;SDS011;25686;51.908;10.418;2023-12-20T08:05:35;13.83;;;3.33;;
39994;SDS011;25686;51.908;10.418;2023-12-20T08:07:36;16.43;;;2.93;;
39994;SDS011;25686;51.908;10.418;2023-12-20T08:09:37;18.13;;;3.73;;
39994;SDS011;25686;51.908;10.418;2023-12-20T08:11:38;14.93;;;3.17;;
39994;SDS011;25686;51.908;10.418;2023-12-20T08:13:39;11.00;;;3.23;;
39994;SDS011;25686;51.908;10.418;2023-12-20T08:15:40;17.20;;;3.73;;
39994;SDS011;25686;51.908;10.418;2023-12-20T08:17:41;21.97;;;3.80;;
39994;SDS011;25686;51.908;10.418;2023-12-20T08:19:42;16.75;;;3.47;;
39994;SDS011;25686;51.908;10.418;2023-12-20T08:21:43;18.00;;;4.13;;
39994;SDS011;25686;51.908;10.418;2023-12-20T08:23:44;18.33;;;3.87;;
39994;SDS011;25686;51.908;10.418;2023-12-20T08:25:45;17.90;;;3.50;;
39994;SDS011;25686;51.908;10.418;2023-12-20T08:27:46;18.65;;;4.10;;
39994;SDS011;25686;51.908;10.418;2023-12-20T08:29:47;14.17;;;3.97;;
39994;SDS011;25686;51.908;10.418;2023-12-20T08:31:53;16.03;;;4.00;;
39994;SDS011;25686;51.908;10.418;2023-12-20T08:33:57;17.13;;;4.00;;
39994;SDS011;25686;51.908;10.418;2023-12-20T08:35:58;12.13;;;3.97;;
39994;SDS011;25686;51.908;10.418;2023-12-20T08:37:59;18.67;;;3.90;;
39994;SDS011;25686;51.908;10.418;2023-12-20T08:39:59;14.23;;;3.90;;
39994;SDS011;25686;51.908;10.418;2023-12-20T08:42:01;12.70;;;3.70;;
39994;SDS011;25686;51.908;10.418;2023-12-20T08:44:02;14.80;;;3.90;;
39994;SDS011;25686;51.908;10.418;2023-12-20T08:46:03;13.23;;;3.83;;
39994;SDS011;25686;51.908;10.418;2023-12-20T08:48:04;14.73;;;3.50;;
39994;SDS011;25686;51.908;10.418;2023-12-20T08:50:05;14.33;;;3.50;;
39994;SDS011;25686;51.908;10.418;2023-12-20T08:52:07;13.27;;;4.27;;
39994;SDS011;25686;51.908;10.418;2023-12-20T08:54:08;10.07;;;3.67;;
39994;SDS011;25686;51.908;10.418;2023-12-20T08:56:09;14.90;;;4.05;;
39994;SDS011;25686;51.908;10.418;2023-12-20T08:58:10;11.97;;;4.17;;
39994;SDS011;25686;51.908;10.418;2023-12-20T09:00:11;14.63;;;3.87;;
39994;SDS011;25686;51.908;10.418;2023-12-20T09:02:12;16.27;;;3.90;;
39994;SDS011;25686;51.908;10.418;2023-12-20T09:04:13;15.13;;;4.33;;
39994;SDS011;25686;51.908;10.418;2023-12-20T09:06:14;12.07;;;4.00;;
39994;SDS011;25686;51.908;10.418;2023-12-20T09:08:15;16.40;;;4.67;;
39994;SDS011;25686;51.908;10.418;2023-12-20T09:10:16;16.20;;;3.50;;
39994;SDS011;25686;51.908;10.418;2023-12-20T09:12:22;13.93;;;4.17;;
39994;SDS011;25686;51.908;10.418;2023-12-20T09:14:23;13.37;;;4.13;;
39994;SDS011;25686;51.908;10.418;2023-12-20T09:16:24;15.10;;;4.10;;
39994;SDS011;25686;51.908;10.418;2023-12-20T09:18:25;14.03;;;4.47;;
39994;SDS011;25686;51.908;10.418;2023-12-20T09:20:26;12.25;;;4.13;;
39994;SDS011;25686;51.908;10.418;2023-12-20T09:22:27;16.17;;;4.30;;
39994;SDS011;25686;51.908;10.418;2023-12-20T09:24:28;12.27;;;4.00;;
39994;SDS011;25686;51.908;10.418;2023-12-20T09:26:29;16.63;;;4.63;;
39994;SDS011;25686;51.908;10.418;2023-12-20T09:28:30;10.88;;;3.72;;
39994;SDS011;25686;51.908;10.418;2023-12-20T09:30:35;13.17;;;4.33;;
39994;SDS011;25686;51.908;10.418;2023-12-20T09:32:39;13.33;;;4.00;;
39994;SDS011;25686;51.908;10.418;2023-12-20T09:34:40;11.53;;;4.37;;
39994;SDS011;25686;51.908;10.418;2023-12-20T09:36:41;12.57;;;4.40;;
39994;SDS011;25686;51.908;10.418;2023-12-20T09:38:46;19.45;;;4.30;;
39994;SDS011;25686;51.908;10.418;2023-12-20T09:40:47;14.77;;;4.20;;
39994;SDS011;25686;51.908;10.418;2023-12-20T09:44:49;11.83;;;4.13;;
39994;SDS011;25686;51.908;10.418;2023-12-20T09:46:50;17.73;;;5.65;;
39994;SDS011;25686;51.908;10.418;2023-12-20T09:48:52;14.60;;;3.97;;
39994;SDS011;25686;51.908;10.418;2023-12-20T09:50:54;14.10;;;3.80;;
39994;SDS011;25686;51.908;10.418;2023-12-20T09:52:55;11.73;;;4.07;;
39994;SDS011;25686;51.908;10.418;2023-12-20T09:54:59;13.82;;;3.92;;
39994;SDS011;25686;51.908;10.418;2023-12-20T09:57:04;14.47;;;3.87;;
39994;SDS011;25686;51.908;10.418;2023-12-20T09:59:05;12.30;;;3.97;;
39994;SDS011;25686;51.908;10.418;2023-12-20T10:01:06;10.60;;;3.80;;
39994;SDS011;25686;51.908;10.418;2023-12-20T10:03:08;11.90;;;3.47;;
39994;SDS011;25686;51.908;10.418;2023-12-20T10:05:09;12.13;;;3.92;;
39994;SDS011;25686;51.908;10.418;2023-12-20T10:07:16;14.75;;;4.22;;
39994;SDS011;25686;51.908;10.418;2023-12-20T10:09:17;10.60;;;3.33;;
39994;SDS011;25686;51.908;10.418;2023-12-20T10:11:18;9.33;;;4.03;;
39994;SDS011;25686;51.908;10.418;2023-12-20T10:13:19;9.55;;;3.03;;
39994;SDS011;25686;51.908;10.418;2023-12-20T10:15:20;11.85;;;3.42;;
39994;SDS011;25686;51.908;10.418;2023-12-20T10:17:21;11.68;;;3.20;;
39994;SDS011;25686;51.908;10.418;2023-12-20T10:19:23;8.83;;;3.37;;
39994;SDS011;25686;51.908;10.418;2023-12-20T10:21:24;8.43;;;2.92;;
39994;SDS011;25686;51.908;10.418;2023-12-20T10:23:28;10.35;;;3.28;;
39994;SDS011;25686;51.908;10.418;2023-12-20T10:25:30;7.18;;;3.30;;
39994;SDS011;25686;51.908;10.418;2023-12-20T10:27:31;10.85;;;3.13;;
39994;SDS011;25686;51.908;10.418;2023-12-20T10:29:37;12.05;;;3.53;;
39994;SDS011;25686;51.908;10.418;2023-12-20T10:31:38;11.15;;;3.60;;
39994;SDS011;25686;51.908;10.418;2023-12-20T10:33:39;12.10;;;3.30;;
39994;SDS011;25686;51.908;10.418;2023-12-20T10:35:40;10.70;;;3.40;;
39994;SDS011;25686;51.908;10.418;2023-12-20T10:37:42;10.35;;;3.67;;
39994;SDS011;25686;51.908;10.418;2023-12-20T10:39:43;14.10;;;3.73;;
39994;SDS011;25686;51.908;10.418;2023-12-20T10:41:44;9.32;;;3.28;;
39994;SDS011;25686;51.908;10.418;2023-12-20T10:43:46;9.03;;;3.67;;
39994;SDS011;25686;51.908;10.418;2023-12-20T10:45:47;9.20;;;3.87;;
39994;SDS011;25686;51.908;10.418;2023-12-20T10:47:48;10.90;;;4.00;;
39994;SDS011;25686;51.908;10.418;2023-12-20T10:49:50;10.52;;;3.90;;
39994;SDS011;25686;51.908;10.418;2023-12-20T10:51:53;11.55;;;4.10;;
39994;SDS011;25686;51.908;10.418;2023-12-20T10:53:57;11.68;;;4.00;;
39994;SDS011;25686;51.908;10.418;2023-12-20T10:55:59;9.38;;;3.60;;
39994;SDS011;25686;51.908;10.418;2023-12-20T10:58:01;10.80;;;4.18;;
39994;SDS011;25686;51.908;10.418;2023-12-20T11:00:02;14.32;;;3.95;;
39994;SDS011;25686;51.908;10.418;2023-12-20T11:02:04;13.63;;;4.65;;
39994;SDS011;25686;51.908;10.418;2023-12-20T11:04:06;18.45;;;4.22;;
39994;SDS011;25686;51.908;10.418;2023-12-20T11:08:32;11.93;;;3.45;;
39994;SDS011;25686;51.908;10.418;2023-12-20T11:10:47;13.52;;;3.75;;
39994;SDS011;25686;51.908;10.418;2023-12-20T11:12:54;8.05;;;3.53;;
39994;SDS011;25686;51.908;10.418;2023-12-20T11:14:58;15.05;;;3.70;;
39994;SDS011;25686;51.908;10.418;2023-12-20T11:17:10;9.60;;;3.25;;
39994;SDS011;25686;51.908;10.418;2023-12-20T11:19:16;15.82;;;4.18;;
39994;SDS011;25686;51.908;10.418;2023-12-20T11:21:17;8.82;;;3.20;;
39994;SDS011;25686;51.908;10.418;2023-12-20T11:23:18;9.60;;;4.00;;
39994;SDS011;25686;51.908;10.418;2023-12-20T11:25:19;12.07;;;4.00;;
39994;SDS011;25686;51.908;10.418;2023-12-20T11:27:20;10.85;;;3.85;;
39994;SDS011;25686;51.908;10.418;2023-12-20T11:29:37;13.13;;;4.00;;
39994;SDS011;25686;51.908;10.418;2023-12-20T11:31:40;10.35;;;3.65;;
39994;SDS011;25686;51.908;10.418;2023-12-20T11:33:41;15.95;;;4.35;;
39994;SDS011;25686;51.908;10.418;2023-12-20T11:35:45;12.05;;;4.38;;
39994;SDS011;25686;51.908;10.418;2023-12-20T11:37:46;12.85;;;4.05;;
39994;SDS011;25686;51.908;10.418;2023-12-20T11:40:06;13.30;;;3.70;;
39994;SDS011;25686;51.908;10.418;2023-12-20T11:42:09;8.32;;;3.60;;
39994;SDS011;25686;51.908;10.418;2023-12-20T11:44:11;11.70;;;3.63;;
39994;SDS011;25686;51.908;10.418;2023-12-20T11:46:12;13.95;;;4.13;;
39994;SDS011;25686;51.908;10.418;2023-12-20T11:48:13;8.13;;;4.07;;
39994;SDS011;25686;51.908;10.418;2023-12-20T11:50:14;13.18;;;4.20;;
39994;SDS011;25686;51.908;10.418;2023-12-20T11:52:15;9.13;;;3.65;;
39994;SDS011;25686;51.908;10.418;2023-12-20T11:54:16;7.72;;;3.88;;
39994;SDS011;25686;51.908;10.418;2023-12-20T11:56:17;8.77;;;3.70;;
39994;SDS011;25686;51.908;10.418;2023-12-20T11:58:18;6.75;;;3.53;;
39994;SDS011;25686;51.908;10.418;2023-12-20T12:00:19;7.47;;;3.72;;